createdAt,value
2019-04-10T00:00:47.855Z,27.70
2019-04-10T00:02:21.635Z,27.03
2019-04-10T00:03:54.533Z,27.83
2019-04-10T00:05:27.744Z,26.23
2019-04-10T00:07:09.483Z,28.67
2019-04-10T00:08:34.546Z,23.10
2019-04-10T00:10:07.732Z,26.27
2019-04-10T00:11:40.965Z,24.37
2019-04-10T00:13:14.192Z,21.57
2019-04-10T00:14:46.751Z,24.50
2019-04-10T00:16:20.902Z,25.07
2019-04-10T00:17:53.614Z,23.77
2019-04-10T00:19:26.702Z,25.43
2019-04-10T00:20:59.481Z,25.67
2019-04-10T00:22:31.827Z,22.07
2019-04-10T00:24:04.186Z,22.70
2019-04-10T00:25:37.118Z,22.63
2019-04-10T00:27:10.397Z,20.67
2019-04-10T00:28:43.581Z,21.43
2019-04-10T00:30:16.614Z,19.73
2019-04-10T00:31:49.187Z,23.33
2019-04-10T00:33:21.817Z,21.20
2019-04-10T00:34:56.132Z,22.53
2019-04-10T00:36:28.894Z,19.83
2019-04-10T00:38:01.751Z,20.13
2019-04-10T00:39:34.879Z,17.70
2019-04-10T00:41:08.030Z,17.03
2019-04-10T00:42:41.141Z,19.60
2019-04-10T00:44:13.787Z,16.83
2019-04-10T00:45:46.346Z,21.37
2019-04-10T00:47:19.144Z,18.47
2019-04-10T00:48:52.341Z,16.73
2019-04-10T00:50:24.874Z,18.17
2019-04-10T00:51:57.526Z,18.87
2019-04-10T00:53:30.077Z,17.70
2019-04-10T00:55:03.569Z,18.70
2019-04-10T00:56:36.848Z,15.93
2019-04-10T00:58:09.987Z,20.37
2019-04-10T00:59:42.623Z,19.90
2019-04-10T01:01:15.947Z,19.33
2019-04-10T01:02:49.160Z,16.77
2019-04-10T01:04:22.354Z,20.13
2019-04-10T01:05:55.474Z,15.97
2019-04-10T01:07:36.616Z,18.03
2019-04-10T01:09:02.042Z,17.40
2019-04-10T01:12:44.295Z,19.40
2019-04-10T01:14:35.943Z,20.37
2019-04-10T01:16:11.357Z,18.83
2019-04-10T01:17:43.950Z,16.10
2019-04-10T01:19:17.492Z,16.40
2019-04-10T01:20:50.168Z,20.50
2019-04-10T01:22:41.457Z,20.90
2019-04-10T01:24:33.358Z,19.70
2019-04-10T01:26:25.045Z,18.93
2019-04-10T01:28:00.455Z,19.00
2019-04-10T01:29:33.627Z,19.50
2019-04-10T01:31:06.775Z,19.93
2019-04-10T01:32:39.754Z,18.10
2019-04-10T01:34:13.519Z,18.53
2019-04-10T01:35:46.710Z,18.33
2019-04-10T01:37:19.300Z,16.30
2019-04-10T01:38:51.838Z,17.90
2019-04-10T01:40:24.281Z,16.37
2019-04-10T01:41:56.812Z,20.03
2019-04-10T01:43:29.309Z,20.40
2019-04-10T01:45:02.830Z,21.13
2019-04-10T01:46:36.138Z,21.63
2019-04-10T01:48:09.787Z,18.00
2019-04-10T01:49:42.640Z,19.50
2019-04-10T01:51:15.250Z,18.63
2019-04-10T01:52:47.588Z,20.27
2019-04-10T01:54:19.935Z,18.73
2019-04-10T01:55:53.407Z,19.40
2019-04-10T01:57:28.805Z,21.47
2019-04-10T01:59:01.394Z,20.93
2019-04-10T02:00:34.111Z,19.70
2019-04-10T02:02:07.208Z,19.93
2019-04-10T02:03:40.369Z,18.83
2019-04-10T02:05:12.898Z,20.10
2019-04-10T02:06:45.434Z,24.90
2019-04-10T02:08:18.932Z,20.53
2019-04-10T02:09:51.878Z,24.67
2019-04-10T02:11:24.363Z,22.63
2019-04-10T02:12:56.984Z,23.43
2019-04-10T02:14:30.021Z,25.90
2019-04-10T02:16:02.980Z,23.13
2019-04-10T02:17:35.363Z,25.13
2019-04-10T02:19:08.196Z,25.30
2019-04-10T02:20:41.037Z,25.97
2019-04-10T02:22:14.120Z,25.27
2019-04-10T02:23:46.909Z,25.43
2019-04-10T02:25:19.927Z,24.40
2019-04-10T02:26:52.501Z,25.50
2019-04-10T02:28:24.991Z,25.13
2019-04-10T02:29:57.902Z,27.13
2019-04-10T02:31:31.899Z,27.33
2019-04-10T02:33:06.041Z,26.57
2019-04-10T02:34:41.523Z,26.83
2019-04-10T02:36:14.601Z,25.57
2019-04-10T02:37:51.079Z,27.40
2019-04-10T02:39:31.458Z,30.90
2019-04-10T02:40:56.121Z,25.53
2019-04-10T02:42:30.178Z,24.37
2019-04-10T02:44:03.168Z,25.77
2019-04-10T02:45:39.803Z,24.27
2019-04-10T02:47:12.744Z,30.13
2019-04-10T02:48:45.369Z,28.23
2019-04-10T02:50:18.756Z,27.90
2019-04-10T02:51:51.978Z,28.07
2019-04-10T02:53:25.665Z,29.50
2019-04-10T02:54:59.523Z,29.43
2019-04-10T02:56:32.741Z,31.73
2019-04-10T02:58:06.007Z,29.63
2019-04-10T02:59:39.749Z,31.23
2019-04-10T03:01:13.480Z,29.47
2019-04-10T03:02:47.714Z,27.87
2019-04-10T03:04:20.684Z,30.87
2019-04-10T03:05:54.219Z,24.87
2019-04-10T03:07:28.194Z,25.07
2019-04-10T03:09:14.599Z,23.97
2019-04-10T03:10:43.251Z,29.73
2019-04-10T03:12:10.561Z,27.70
2019-04-10T03:13:45.011Z,27.33
2019-04-10T03:15:19.359Z,27.93
2019-04-10T03:16:51.572Z,27.43
2019-04-10T03:18:25.037Z,31.13
2019-04-10T03:19:58.096Z,28.37
2019-04-10T03:21:31.325Z,26.77
2019-04-10T03:23:03.812Z,31.10
2019-04-10T03:24:36.267Z,27.63
2019-04-10T03:26:09.654Z,27.97
2019-04-10T03:27:42.746Z,25.90
2019-04-10T03:29:15.706Z,25.47
2019-04-10T03:30:49.599Z,27.07
2019-04-10T03:32:23.638Z,26.97
2019-04-10T03:33:56.251Z,28.47
2019-04-10T03:35:28.774Z,27.80
2019-04-10T03:37:01.808Z,28.50
2019-04-10T03:38:47.361Z,24.83
2019-04-10T03:40:09.314Z,26.17
2019-04-10T03:41:42.166Z,26.20
2019-04-10T03:43:14.909Z,26.90
2019-04-10T03:44:47.391Z,26.00
2019-04-10T03:46:19.745Z,25.27
2019-04-10T03:47:52.246Z,27.37
2019-04-10T03:49:25.519Z,24.53
2019-04-10T03:50:58.712Z,25.13
2019-04-10T03:52:31.513Z,31.40
2019-04-10T03:54:04.787Z,23.97
2019-04-10T03:55:37.312Z,24.87
2019-04-10T03:57:10.112Z,24.77
2019-04-10T03:58:42.588Z,27.40
2019-04-10T04:00:16.117Z,22.47
2019-04-10T04:01:49.282Z,23.03
2019-04-10T04:03:21.828Z,23.27
2019-04-10T04:04:54.441Z,22.77
2019-04-10T04:06:27.883Z,24.17
2019-04-10T04:08:01.311Z,23.60
2019-04-10T04:09:33.934Z,21.73
2019-04-10T04:11:07.195Z,23.57
2019-04-10T04:12:39.929Z,22.70
2019-04-10T04:14:12.532Z,21.43
2019-04-10T04:15:46.275Z,21.23
2019-04-10T04:17:19.989Z,21.83
2019-04-10T04:18:53.376Z,21.70
2019-04-10T04:20:26.595Z,20.73
2019-04-10T04:21:59.296Z,21.20
2019-04-10T04:23:31.944Z,20.67
2019-04-10T04:25:04.601Z,21.03
2019-04-10T04:26:37.219Z,19.83
2019-04-10T04:28:09.639Z,19.83
2019-04-10T04:29:42.118Z,19.23
2019-04-10T04:31:15.948Z,20.03
2019-04-10T04:32:48.500Z,17.43
2019-04-10T04:34:21.008Z,18.63
2019-04-10T04:35:53.435Z,17.73
2019-04-10T04:37:26.003Z,19.60
2019-04-10T04:38:58.506Z,15.23
2019-04-10T04:40:31.006Z,17.43
2019-04-10T04:42:03.469Z,19.40
2019-04-10T04:43:37.016Z,19.50
2019-04-10T04:45:10.682Z,18.70
2019-04-10T04:46:43.262Z,19.13
2019-04-10T04:48:16.902Z,19.70
2019-04-10T04:49:50.261Z,19.33
2019-04-10T04:51:22.813Z,19.40
2019-04-10T04:52:55.308Z,18.33
2019-04-10T04:54:28.827Z,19.00
2019-04-10T04:56:01.851Z,18.20
2019-04-10T04:57:36.501Z,20.03
2019-04-10T04:59:08.469Z,18.57
2019-04-10T05:00:41.757Z,19.00
2019-04-10T05:02:14.631Z,17.03
2019-04-10T05:03:47.099Z,16.93
2019-04-10T05:05:19.653Z,18.50
2019-04-10T05:06:52.200Z,23.73
2019-04-10T05:08:24.709Z,37.00
2019-04-10T05:10:00.168Z,35.20
2019-04-10T05:11:32.676Z,37.03
2019-04-10T05:13:06.725Z,41.37
2019-04-10T05:14:39.886Z,43.17
2019-04-10T05:16:12.694Z,54.20
2019-04-10T05:17:45.308Z,53.27
2019-04-10T05:19:18.906Z,54.07
2019-04-10T05:20:52.404Z,48.03
2019-04-10T05:22:25.232Z,54.97
2019-04-10T05:23:57.762Z,55.97
2019-04-10T05:25:30.331Z,56.03
2019-04-10T05:27:05.732Z,50.17
2019-04-10T05:28:38.291Z,55.20
2019-04-10T05:30:10.845Z,51.63
2019-04-10T05:31:43.415Z,55.23
2019-04-10T05:33:16.273Z,58.13
2019-04-10T05:34:48.870Z,50.27
2019-04-10T05:36:21.632Z,56.37
2019-04-10T05:37:54.416Z,52.63
2019-04-10T05:39:39.085Z,58.30
2019-04-10T05:41:01.426Z,51.13
2019-04-10T05:42:35.201Z,51.87
2019-04-10T05:44:08.036Z,49.23
2019-04-10T05:45:40.531Z,52.43
2019-04-10T05:47:13.660Z,51.17
2019-04-10T05:48:46.293Z,60.40
2019-04-10T05:50:19.403Z,49.37
2019-04-10T05:51:52.075Z,50.33
2019-04-10T05:53:24.726Z,52.37
2019-04-10T05:54:57.806Z,53.87
2019-04-10T05:56:30.365Z,51.90
2019-04-10T05:58:03.007Z,52.47
2019-04-10T05:59:36.228Z,50.27
2019-04-10T06:01:09.510Z,50.40
2019-04-10T06:02:42.405Z,52.40
2019-04-10T06:04:15.066Z,52.17
2019-04-10T06:05:50.711Z,53.43
2019-04-10T06:07:29.923Z,54.17
2019-04-10T06:09:04.486Z,48.97
2019-04-10T06:10:43.655Z,54.57
2019-04-10T06:12:36.108Z,51.03
2019-04-10T06:14:28.181Z,54.57
2019-04-10T06:16:19.506Z,47.90
2019-04-10T06:17:59.671Z,58.80
2019-04-10T06:19:35.010Z,46.00
2019-04-10T06:21:07.545Z,47.50
2019-04-10T06:22:40.929Z,54.37
2019-04-10T06:24:14.193Z,55.90
2019-04-10T06:25:47.748Z,55.90
2019-04-10T06:27:20.555Z,52.63
2019-04-10T06:28:53.101Z,49.90
2019-04-10T06:30:27.968Z,56.87
2019-04-10T06:32:03.193Z,59.40
2019-04-10T06:33:44.389Z,56.33
2019-04-10T06:35:17.832Z,54.30
2019-04-10T06:36:51.555Z,53.97
2019-04-10T06:38:26.583Z,53.83
2019-04-10T06:40:07.682Z,55.30
2019-04-10T06:41:32.771Z,57.33
2019-04-10T06:43:10.091Z,51.50
2019-04-10T06:44:42.731Z,54.93
2019-04-10T06:46:16.491Z,53.13
2019-04-10T06:47:49.390Z,55.13
2019-04-10T06:49:29.255Z,59.40
2019-04-10T06:51:02.104Z,56.50
2019-04-10T06:52:45.279Z,51.10
2019-04-10T06:54:18.492Z,58.60
2019-04-10T06:55:51.044Z,55.53
2019-04-10T06:57:25.018Z,51.80
2019-04-10T06:58:58.337Z,50.90
2019-04-10T07:00:34.814Z,50.53
2019-04-10T07:02:22.031Z,52.13
2019-04-10T07:03:52.708Z,59.30
2019-04-10T07:05:16.466Z,54.90
2019-04-10T07:06:57.983Z,56.30
2019-04-10T07:08:27.425Z,54.77
2019-04-10T07:10:00.193Z,53.13
2019-04-10T07:11:37.270Z,56.97
2019-04-10T07:13:13.394Z,56.53
2019-04-10T07:14:50.781Z,57.83
2019-04-10T07:16:26.623Z,53.27
2019-04-10T07:17:57.222Z,54.90
2019-04-10T07:19:30.293Z,53.40
2019-04-10T07:21:02.902Z,55.43
2019-04-10T07:22:36.545Z,47.87
2019-04-10T07:24:11.006Z,51.73
2019-04-10T07:25:45.397Z,56.47
2019-04-10T07:27:23.688Z,53.73
2019-04-10T07:28:59.066Z,47.73
2019-04-10T07:30:31.866Z,49.30
2019-04-10T07:32:07.864Z,52.03
2019-04-10T07:33:38.988Z,49.30
2019-04-10T07:35:21.870Z,47.33
2019-04-10T07:37:10.775Z,52.43
2019-04-10T07:38:39.316Z,47.37
2019-04-10T07:40:33.027Z,52.43
2019-04-10T07:42:25.302Z,45.73
2019-04-10T07:43:52.434Z,47.83
2019-04-10T07:45:20.918Z,50.83
2019-04-10T07:46:53.489Z,50.97
2019-04-10T07:48:38.775Z,44.87
2019-04-10T07:50:12.206Z,50.23
2019-04-10T07:51:49.205Z,50.97
2019-04-10T07:53:26.877Z,49.43
2019-04-10T07:54:58.965Z,49.77
2019-04-10T07:56:35.287Z,52.30
2019-04-10T07:58:08.961Z,48.90
2019-04-10T07:59:41.611Z,50.23
2019-04-10T08:01:18.275Z,52.17
2019-04-10T08:02:51.128Z,49.23
2019-04-10T08:04:26.863Z,49.83
2019-04-10T08:06:00.409Z,46.50
2019-04-10T08:08:29.804Z,51.93
2019-04-10T08:09:20.995Z,48.00
2019-04-10T08:10:57.425Z,54.97
2019-04-10T08:19:36.974Z,49.23
2019-04-10T08:21:11.857Z,50.27
2019-04-10T08:22:44.878Z,52.17
2019-04-10T08:24:18.136Z,52.43
2019-04-10T08:26:09.200Z,49.53
2019-04-10T08:27:52.662Z,49.93
2019-04-10T08:29:28.159Z,49.37
2019-04-10T08:31:01.018Z,48.87
2019-04-10T08:32:47.495Z,52.87
2019-04-10T08:34:11.609Z,47.87
2019-04-10T08:35:45.348Z,50.07
2019-04-10T08:37:18.850Z,51.70
2019-04-10T08:38:51.506Z,50.17
2019-04-10T08:40:24.077Z,50.47
2019-04-10T08:41:56.640Z,51.33
2019-04-10T08:43:29.593Z,48.80
2019-04-10T08:45:03.517Z,50.23
2019-04-10T08:46:36.134Z,55.03
2019-04-10T08:48:08.611Z,51.33
2019-04-10T08:49:41.206Z,51.53
2019-04-10T08:51:14.722Z,51.47
2019-04-10T08:52:48.602Z,50.10
2019-04-10T08:54:21.664Z,54.10
2019-04-10T08:55:54.585Z,46.57
2019-04-10T08:57:27.738Z,57.90
2019-04-10T08:59:00.411Z,57.73
2019-04-10T09:00:32.871Z,53.83
2019-04-10T09:02:06.085Z,53.57
2019-04-10T09:03:39.287Z,50.50
2019-04-10T09:05:14.989Z,52.00
2019-04-10T09:06:49.500Z,52.37
2019-04-10T09:08:22.144Z,51.50
2019-04-10T09:09:54.697Z,54.50
2019-04-10T09:11:29.787Z,51.83
2019-04-10T09:13:01.363Z,50.50
2019-04-10T09:14:34.953Z,53.03
2019-04-10T09:16:10.004Z,54.27
2019-04-10T09:17:43.713Z,55.93
2019-04-10T09:19:20.375Z,51.03
2019-04-10T09:20:57.197Z,52.20
2019-04-10T09:22:41.874Z,54.37
2019-04-10T09:24:04.706Z,51.63
2019-04-10T09:25:41.481Z,54.13
2019-04-10T09:27:12.955Z,54.30
2019-04-10T09:28:46.633Z,56.07
2019-04-10T09:30:19.171Z,51.93
2019-04-10T09:34:03.314Z,53.10
2019-04-10T09:35:57.178Z,48.80
2019-04-10T09:37:50.360Z,58.87
2019-04-10T09:41:17.565Z,53.83
2019-04-10T09:42:52.147Z,55.50
2019-04-10T09:44:44.334Z,53.77
2019-04-10T09:46:40.833Z,54.57
2019-04-10T09:48:37.952Z,58.40
2019-04-10T09:50:15.829Z,56.40
2019-04-10T09:51:51.912Z,57.13
2019-04-10T09:55:16.126Z,59.07
2019-04-10T09:56:48.877Z,60.33
2019-04-10T09:58:21.898Z,58.40
2019-04-10T10:00:15.345Z,52.23
2019-04-10T10:02:07.091Z,53.03
2019-04-10T10:05:34.920Z,48.67
2019-04-10T10:07:14.365Z,55.70
2019-04-10T10:09:06.193Z,62.63
2019-04-10T10:10:57.621Z,55.97
2019-04-10T10:12:34.268Z,55.50
2019-04-10T10:14:06.884Z,55.90
2019-04-10T10:15:45.195Z,53.67
2019-04-10T10:17:25.503Z,56.93
2019-04-10T10:18:58.159Z,55.60
2019-04-10T10:20:30.773Z,57.83
2019-04-10T10:22:23.106Z,55.37
2019-04-10T10:24:12.484Z,56.57
2019-04-10T10:25:45.712Z,57.10
2019-04-10T10:27:18.354Z,54.53
2019-04-10T10:28:58.571Z,53.43
2019-04-10T10:30:25.776Z,61.97
2019-04-10T10:31:58.450Z,53.60
2019-04-10T10:33:31.955Z,59.33
2019-04-10T10:35:05.020Z,57.10
2019-04-10T10:36:42.000Z,65.17
2019-04-10T10:38:13.027Z,54.77
2019-04-10T10:39:45.676Z,59.10
2019-04-10T10:41:18.576Z,57.23
2019-04-10T10:42:53.931Z,57.87
2019-04-10T10:44:26.568Z,58.23
2019-04-10T10:46:11.456Z,60.50
2019-04-10T10:47:38.309Z,56.50
2019-04-10T10:49:11.020Z,58.73
2019-04-10T10:50:43.646Z,61.57
2019-04-10T10:52:21.552Z,55.57
2019-04-10T10:53:56.697Z,66.83
2019-04-10T10:55:31.860Z,56.83
2019-04-10T10:57:04.458Z,58.47
2019-04-10T10:58:50.764Z,58.23
2019-04-10T11:00:34.134Z,61.83
2019-04-10T11:02:08.569Z,59.13
2019-04-10T11:03:43.049Z,60.57
2019-04-10T11:05:23.208Z,59.40
2019-04-10T11:07:01.182Z,56.17
2019-04-10T11:08:35.822Z,61.27
2019-04-10T11:10:08.618Z,59.60
2019-04-10T11:11:45.241Z,58.20
2019-04-10T11:13:24.223Z,59.20
2019-04-10T11:14:57.096Z,70.70
2019-04-10T11:16:29.747Z,64.10
2019-04-10T11:18:04.726Z,58.70
2019-04-10T11:19:37.719Z,59.97
2019-04-10T11:21:12.378Z,65.00
2019-04-10T11:22:49.507Z,65.40
2019-04-10T11:24:25.387Z,64.13
2019-04-10T11:26:04.797Z,60.20
2019-04-10T11:27:39.350Z,65.43
2019-04-10T11:29:14.363Z,59.50
2019-04-10T11:30:47.471Z,67.13
2019-04-10T11:32:28.934Z,62.50
2019-04-10T11:34:11.285Z,65.07
2019-04-10T11:35:47.579Z,60.73
2019-04-10T11:37:35.013Z,63.53
2019-04-10T11:40:57.389Z,71.47
2019-04-10T11:42:39.646Z,62.50
2019-04-10T11:44:14.330Z,60.63
2019-04-10T11:45:52.471Z,62.77
2019-04-10T11:47:24.551Z,62.07
2019-04-10T11:49:02.545Z,63.90
2019-04-10T11:50:38.621Z,58.70
2019-04-10T11:52:14.586Z,62.33
2019-04-10T11:53:54.364Z,60.57
2019-04-10T11:55:27.838Z,67.00
2019-04-10T11:57:06.696Z,64.23
2019-04-10T11:58:48.670Z,63.10
2019-04-10T12:00:23.706Z,68.30
2019-04-10T12:02:02.606Z,60.93
2019-04-10T12:03:31.468Z,67.03
2019-04-10T12:05:11.018Z,61.33
2019-04-10T12:07:01.949Z,62.63
2019-04-10T12:09:13.265Z,59.27
2019-04-10T12:12:01.495Z,64.80
2019-04-10T12:13:34.509Z,62.33
2019-04-10T12:15:08.023Z,61.23
2019-04-10T12:16:43.208Z,62.23
2019-04-10T12:18:14.868Z,60.17
2019-04-10T12:19:47.424Z,59.60
2019-04-10T12:21:20.013Z,56.23
2019-04-10T12:22:52.705Z,60.80
2019-04-10T12:24:25.992Z,60.40
2019-04-10T12:25:59.043Z,60.13
2019-04-10T12:27:33.431Z,55.90
2019-04-10T12:29:06.665Z,56.67
2019-04-10T12:30:39.546Z,57.40
2019-04-10T12:32:12.429Z,58.20
2019-04-10T12:33:44.984Z,63.10
2019-04-10T12:35:17.538Z,60.27
2019-04-10T12:36:51.842Z,56.10
2019-04-10T12:38:24.336Z,61.70
2019-04-10T12:39:57.222Z,59.53
2019-04-10T12:41:29.783Z,59.93
2019-04-10T12:43:02.942Z,59.40
2019-04-10T12:44:35.977Z,61.43
2019-04-10T12:46:08.701Z,56.77
2019-04-10T12:47:41.928Z,59.83
2019-04-10T12:49:15.062Z,56.63
2019-04-10T12:50:47.600Z,60.17
2019-04-10T12:52:20.660Z,57.67
2019-04-10T12:53:54.039Z,59.70
2019-04-10T12:55:26.606Z,53.27
2019-04-10T12:56:59.181Z,56.87
2019-04-10T12:58:32.903Z,53.27
2019-04-10T13:00:06.679Z,59.83
2019-04-10T13:01:40.673Z,53.93
2019-04-10T13:03:14.524Z,52.73
2019-04-10T13:04:47.158Z,59.33
2019-04-10T13:06:20.074Z,60.43
2019-04-10T13:07:52.629Z,58.90
2019-04-10T13:09:26.159Z,57.33
2019-04-10T13:10:58.822Z,55.07
2019-04-10T13:12:31.377Z,53.17
2019-04-10T13:14:03.999Z,59.10
2019-04-10T13:15:37.219Z,58.47
2019-04-10T13:17:09.964Z,55.33
2019-04-10T13:18:42.784Z,57.73
2019-04-10T13:20:15.652Z,55.63
2019-04-10T13:21:48.329Z,59.23
2019-04-10T13:23:20.888Z,60.70
2019-04-10T13:24:54.143Z,58.13
2019-04-10T13:26:26.686Z,62.40
2019-04-10T13:27:59.269Z,58.13
2019-04-10T13:29:32.258Z,60.40
2019-04-10T13:31:05.460Z,61.83
2019-04-10T13:32:38.138Z,57.60
2019-04-10T13:34:11.172Z,56.80
2019-04-10T13:35:43.944Z,54.80
2019-04-10T13:37:16.486Z,57.27
2019-04-10T13:38:49.166Z,59.97
2019-04-10T13:40:21.756Z,60.83
2019-04-10T13:41:54.714Z,58.33
2019-04-10T13:43:27.686Z,57.30
2019-04-10T13:45:00.485Z,62.03
2019-04-10T13:46:33.959Z,58.40
2019-04-10T13:48:08.137Z,60.10
2019-04-10T13:49:42.002Z,57.57
2019-04-10T13:51:15.040Z,55.60
2019-04-10T13:52:50.735Z,60.20
2019-04-10T13:54:22.818Z,57.30
2019-04-10T13:55:56.883Z,57.60
2019-04-10T13:57:30.717Z,59.27
2019-04-10T13:59:03.259Z,61.20
2019-04-10T14:00:38.379Z,56.67
2019-04-10T14:02:10.288Z,62.93
2019-04-10T14:03:44.236Z,58.57
2019-04-10T14:05:17.882Z,62.20
2019-04-10T14:06:51.453Z,62.27
2019-04-10T14:08:40.628Z,59.67
2019-04-10T14:10:00.718Z,60.73
2019-04-10T14:11:33.395Z,59.53
2019-04-10T14:13:05.926Z,57.80
2019-04-10T14:14:38.282Z,60.27
2019-04-10T14:16:10.769Z,58.33
2019-04-10T14:17:43.891Z,61.77
2019-04-10T14:19:17.236Z,58.93
2019-04-10T14:20:49.827Z,57.30
2019-04-10T14:22:22.255Z,65.33
2019-04-10T14:23:55.602Z,65.60
2019-04-10T14:25:28.148Z,61.37
2019-04-10T14:27:00.571Z,62.53
2019-04-10T14:28:33.349Z,62.43
2019-04-10T14:30:07.033Z,62.50
2019-04-10T14:31:40.516Z,60.43
2019-04-10T14:33:13.133Z,62.30
2019-04-10T14:34:45.621Z,58.90
2019-04-10T14:36:18.100Z,59.30
2019-04-10T14:37:50.480Z,60.43
2019-04-10T14:39:23.000Z,60.53
2019-04-10T14:40:55.584Z,63.77
2019-04-10T14:42:28.519Z,61.43
2019-04-10T14:44:01.873Z,63.60
2019-04-10T14:45:35.452Z,63.13
2019-04-10T14:47:08.579Z,61.77
2019-04-10T14:48:41.063Z,61.10
2019-04-10T14:50:13.723Z,62.87
2019-04-10T14:51:48.529Z,59.10
2019-04-10T14:53:25.023Z,58.17
2019-04-10T14:54:57.920Z,58.37
2019-04-10T14:56:30.495Z,64.97
2019-04-10T14:58:03.429Z,61.27
2019-04-10T14:59:35.968Z,64.17
2019-04-10T15:01:08.966Z,62.80
2019-04-10T15:02:43.051Z,62.00
2019-04-10T15:04:15.694Z,57.60
2019-04-10T15:05:51.473Z,58.87
2019-04-10T15:07:22.237Z,65.13
2019-04-10T15:08:55.610Z,65.83
2019-04-10T15:10:28.087Z,60.87
2019-04-10T15:12:00.875Z,60.97
2019-04-10T15:13:33.920Z,63.27
2019-04-10T15:15:06.434Z,61.30
2019-04-10T15:16:39.121Z,63.23
2019-04-10T15:18:11.566Z,59.30
2019-04-10T15:19:44.779Z,64.47
2019-04-10T15:21:17.341Z,64.63
2019-04-10T15:22:49.837Z,60.27
2019-04-10T15:24:22.194Z,59.27
2019-04-10T15:25:55.483Z,62.27
2019-04-10T15:27:29.166Z,62.87
2019-04-10T15:29:01.666Z,62.23
2019-04-10T15:30:34.742Z,66.17
2019-04-10T15:32:08.364Z,60.83
2019-04-10T15:33:41.076Z,62.63
2019-04-10T15:35:13.620Z,63.10
2019-04-10T15:36:47.636Z,64.90
2019-04-10T15:38:20.195Z,65.37
2019-04-10T15:39:53.822Z,67.20
2019-04-10T15:41:27.339Z,69.13
2019-04-10T15:43:00.719Z,66.50
2019-04-10T15:44:34.297Z,64.30
2019-04-10T15:46:06.886Z,69.23
2019-04-10T15:47:49.195Z,66.90
2019-04-10T15:49:13.374Z,64.80
2019-04-10T15:50:47.541Z,63.73
2019-04-10T15:52:20.063Z,67.20
2019-04-10T15:53:53.491Z,67.93
2019-04-10T15:55:26.015Z,63.30
2019-04-10T15:56:58.658Z,69.93
2019-04-10T15:58:31.235Z,69.77
2019-04-10T16:00:03.710Z,65.50
2019-04-10T16:01:37.140Z,62.00
2019-04-10T16:03:09.735Z,66.20
2019-04-10T16:04:42.369Z,64.33
2019-04-10T16:06:15.367Z,65.50
2019-04-10T16:07:48.918Z,63.67
2019-04-10T16:09:21.398Z,68.13
2019-04-10T16:10:53.750Z,67.97
2019-04-10T16:12:26.968Z,67.77
2019-04-10T16:14:01.018Z,64.93
2019-04-10T16:15:34.552Z,70.47
2019-04-10T16:17:07.031Z,68.70
2019-04-10T16:18:39.396Z,62.70
2019-04-10T16:20:11.825Z,67.47
2019-04-10T16:21:44.330Z,65.33
2019-04-10T16:23:20.274Z,68.10
2019-04-10T16:24:53.363Z,64.87
2019-04-10T16:26:25.803Z,68.77
2019-04-10T16:27:58.220Z,60.00
2019-04-10T16:29:30.655Z,64.97
2019-04-10T16:31:03.388Z,68.90
2019-04-10T16:32:36.937Z,72.33
2019-04-10T16:34:09.497Z,66.40
2019-04-10T16:35:42.002Z,67.63
2019-04-10T16:37:14.791Z,67.27
2019-04-10T16:38:47.222Z,69.37
2019-04-10T16:40:20.677Z,66.53
2019-04-10T16:41:54.433Z,72.17
2019-04-10T16:43:26.913Z,69.27
2019-04-10T16:44:59.737Z,68.43
2019-04-10T16:46:32.238Z,74.33
2019-04-10T16:48:04.670Z,65.97
2019-04-10T16:49:37.239Z,68.70
2019-04-10T16:51:10.077Z,73.23
2019-04-10T16:52:42.562Z,72.97
2019-04-10T16:54:17.625Z,71.10
2019-04-10T16:55:49.415Z,69.53
2019-04-10T16:57:22.658Z,68.10
2019-04-10T16:58:56.326Z,68.17
2019-04-10T17:00:29.177Z,69.87
2019-04-10T17:02:01.834Z,71.43
2019-04-10T17:03:34.398Z,72.23
2019-04-10T17:05:08.075Z,69.63
2019-04-10T17:06:40.647Z,66.10
2019-04-10T17:08:14.062Z,71.43
2019-04-10T17:09:47.260Z,71.73
2019-04-10T17:11:20.905Z,73.33
2019-04-10T17:12:53.931Z,74.13
2019-04-10T17:14:27.152Z,74.93
2019-04-10T17:15:59.697Z,74.70
2019-04-10T17:17:32.564Z,74.73
2019-04-10T17:19:05.726Z,75.13
2019-04-10T17:20:38.341Z,73.60
2019-04-10T17:22:11.086Z,76.10
2019-04-10T17:23:44.789Z,77.83
2019-04-10T17:25:18.051Z,73.33
2019-04-10T17:26:50.998Z,74.50
2019-04-10T17:28:24.941Z,73.70
2019-04-10T17:29:58.402Z,74.30
2019-04-10T17:31:32.821Z,72.40
2019-04-10T17:33:06.756Z,78.83
2019-04-10T17:34:39.581Z,84.03
2019-04-10T17:36:13.435Z,73.83
2019-04-10T17:37:45.857Z,76.47
2019-04-10T17:39:19.627Z,68.77
2019-04-10T17:40:56.521Z,79.87
2019-04-10T17:42:26.282Z,67.50
2019-04-10T17:44:00.648Z,71.60
2019-04-10T17:45:36.416Z,76.83
2019-04-10T17:47:09.981Z,72.87
2019-04-10T17:48:42.562Z,73.77
2019-04-10T17:50:16.127Z,75.83
2019-04-10T17:51:48.703Z,72.03
2019-04-10T17:53:21.228Z,75.50
2019-04-10T17:54:53.879Z,76.10
2019-04-10T17:56:26.384Z,79.67
2019-04-10T17:57:58.780Z,80.27
2019-04-10T17:59:32.330Z,74.90
2019-04-10T18:01:04.851Z,79.20
2019-04-10T18:02:37.279Z,85.47
2019-04-10T18:04:09.695Z,77.87
2019-04-10T18:05:42.658Z,75.63
2019-04-10T18:07:16.199Z,73.00
2019-04-10T18:08:49.343Z,78.87
2019-04-10T18:10:22.574Z,75.60
2019-04-10T18:11:55.041Z,81.87
2019-04-10T18:13:28.649Z,77.00
2019-04-10T18:15:02.055Z,79.43
2019-04-10T18:16:38.050Z,74.97
2019-04-10T18:18:11.550Z,82.83
2019-04-10T18:19:44.339Z,75.90
2019-04-10T18:21:16.988Z,78.67
2019-04-10T18:22:49.477Z,76.87
2019-04-10T18:24:24.154Z,74.27
2019-04-10T18:25:58.218Z,76.30
2019-04-10T18:27:32.327Z,78.80
2019-04-10T18:29:05.964Z,75.63
2019-04-10T18:30:38.657Z,74.70
2019-04-10T18:32:11.758Z,81.97
2019-04-10T18:33:44.742Z,76.63
2019-04-10T18:35:18.375Z,76.83
2019-04-10T18:36:51.101Z,76.73
2019-04-10T18:38:23.899Z,79.53
2019-04-10T18:39:57.024Z,72.50
2019-04-10T18:41:30.022Z,72.03
2019-04-10T18:43:02.643Z,75.97
2019-04-10T18:44:35.238Z,79.23
2019-04-10T18:46:12.729Z,70.17
2019-04-10T18:47:41.869Z,77.90
2019-04-10T18:49:14.283Z,82.03
2019-04-10T18:50:47.494Z,73.37
2019-04-10T18:52:19.998Z,74.60
2019-04-10T18:53:53.356Z,81.20
2019-04-10T18:55:25.855Z,76.77
2019-04-10T18:56:58.334Z,82.90
2019-04-10T18:58:31.698Z,79.00
2019-04-10T19:00:04.319Z,75.37
2019-04-10T19:01:37.065Z,78.00
2019-04-10T19:03:09.691Z,75.27
2019-04-10T19:04:43.264Z,79.20
2019-04-10T19:06:16.355Z,74.33
2019-04-10T19:07:54.949Z,72.37
2019-04-10T19:09:30.412Z,78.23
2019-04-10T19:11:16.907Z,77.97
2019-04-10T19:12:37.471Z,78.23
2019-04-10T19:14:09.979Z,76.87
2019-04-10T19:15:42.501Z,79.40
2019-04-10T19:17:15.016Z,79.23
2019-04-10T19:18:47.994Z,83.83
2019-04-10T19:20:20.496Z,77.50
2019-04-10T19:21:53.762Z,74.10
2019-04-10T19:23:29.122Z,83.73
2019-04-10T19:25:02.956Z,77.33
2019-04-10T19:26:35.743Z,82.23
2019-04-10T19:28:08.643Z,80.30
2019-04-10T19:29:42.348Z,77.47
2019-04-10T19:31:19.398Z,75.43
2019-04-10T19:32:49.911Z,77.40
2019-04-10T19:34:23.457Z,78.87
2019-04-10T19:35:56.146Z,79.87
2019-04-10T19:37:28.720Z,75.93
2019-04-10T19:39:02.109Z,75.10
2019-04-10T19:40:36.942Z,74.13
2019-04-10T19:42:09.099Z,73.40
2019-04-10T19:43:42.227Z,75.63
2019-04-10T19:45:15.302Z,83.10
2019-04-10T19:46:48.104Z,81.07
2019-04-10T19:48:21.305Z,76.73
2019-04-10T19:49:55.032Z,77.83
2019-04-10T19:51:27.535Z,81.57
2019-04-10T19:53:00.539Z,75.37
2019-04-10T19:54:33.265Z,77.97
2019-04-10T19:56:06.518Z,75.67
2019-04-10T19:57:39.552Z,81.10
2019-04-10T19:59:12.145Z,75.70
2019-04-10T20:00:44.569Z,74.13
2019-04-10T20:02:17.080Z,73.17
2019-04-10T20:03:50.045Z,77.43
2019-04-10T20:05:31.627Z,78.90
2019-04-10T20:07:06.849Z,79.43
2019-04-10T20:08:40.343Z,79.30
2019-04-10T20:10:13.305Z,77.03
2019-04-10T20:11:52.547Z,74.57
2019-04-10T20:13:26.840Z,70.77
2019-04-10T20:15:02.347Z,75.13
2019-04-10T20:19:03.362Z,81.40
2019-04-10T20:24:32.614Z,79.97
2019-04-10T20:26:10.434Z,80.40
